createdAt,value
2017-08-13T00:00:15.724Z,0
2017-08-13T00:01:15.651Z,0
2017-08-13T00:02:15.629Z,0
2017-08-13T00:03:15.598Z,0
2017-08-13T00:04:15.281Z,0
2017-08-13T00:05:15.267Z,0
2017-08-13T00:06:15.539Z,0
2017-08-13T00:07:15.543Z,0
2017-08-13T00:08:15.515Z,0
2017-08-13T00:09:15.475Z,0
2017-08-13T00:10:15.450Z,0
2017-08-13T00:11:15.186Z,0
2017-08-13T00:12:15.113Z,0
2017-08-13T00:13:15.388Z,0
2017-08-13T00:14:15.373Z,0
2017-08-13T00:15:15.351Z,0
2017-08-13T00:16:15.327Z,0
2017-08-13T00:17:15.003Z,0
2017-08-13T00:18:15.317Z,0
2017-08-13T00:19:15.258Z,0
2017-08-13T00:20:15.240Z,0
2017-08-13T00:21:15.215Z,0
2017-08-13T00:22:15.197Z,0
2017-08-13T00:23:15.189Z,0
2017-08-13T00:24:15.149Z,0
2017-08-13T00:25:15.175Z,0
2017-08-13T00:26:14.826Z,0
2017-08-13T00:27:15.129Z,0
2017-08-13T00:28:15.058Z,0
2017-08-13T00:29:15.050Z,0
2017-08-13T00:30:15.023Z,0
2017-08-13T00:31:15.054Z,0
2017-08-13T00:32:14.984Z,0
2017-08-13T00:33:14.967Z,0
2017-08-13T00:34:14.932Z,0
2017-08-13T00:35:14.912Z,0
2017-08-13T00:36:14.890Z,0
2017-08-13T00:37:14.829Z,0
2017-08-13T00:38:14.865Z,0
2017-08-13T00:39:14.583Z,0
2017-08-13T00:40:14.801Z,0
2017-08-13T00:41:14.784Z,0
2017-08-13T00:42:14.759Z,0
2017-08-13T00:43:14.443Z,0
2017-08-13T00:44:14.418Z,0
2017-08-13T00:45:14.750Z,0
2017-08-13T00:46:14.681Z,0
2017-08-13T00:47:14.650Z,0
2017-08-13T00:48:14.682Z,0
2017-08-13T00:49:14.313Z,0
2017-08-13T00:50:14.581Z,0
2017-08-13T00:51:14.558Z,0
2017-08-13T00:52:14.551Z,0
2017-08-13T00:53:14.527Z,0
2017-08-13T00:54:14.504Z,0
2017-08-13T00:55:14.487Z,0
2017-08-13T00:56:14.471Z,0
2017-08-13T00:57:14.482Z,0
2017-08-13T00:58:14.413Z,0
2017-08-13T00:59:14.411Z,0
2017-08-13T01:00:14.628Z,0
2017-08-13T01:01:14.045Z,0
2017-08-13T01:02:14.028Z,0
2017-08-13T01:03:14.322Z,0
2017-08-13T01:04:14.280Z,0
2017-08-13T01:05:14.266Z,0
2017-08-13T01:06:14.237Z,0
2017-08-13T01:07:14.221Z,0
2017-08-13T01:08:14.199Z,0
2017-08-13T01:09:14.179Z,0
2017-08-13T01:10:14.145Z,0
2017-08-13T01:11:14.140Z,0
2017-08-13T01:12:14.108Z,0
2017-08-13T01:13:13.787Z,0
2017-08-13T01:14:14.070Z,0
2017-08-13T01:15:14.052Z,0
2017-08-13T01:16:14.021Z,0
2017-08-13T01:17:14.054Z,0
2017-08-13T01:18:13.985Z,0
2017-08-13T01:19:13.952Z,0
2017-08-13T01:20:13.938Z,0
2017-08-13T01:21:13.913Z,0
2017-08-13T01:22:13.937Z,0
2017-08-13T01:23:13.870Z,0
2017-08-13T01:24:13.898Z,0
2017-08-13T01:25:13.846Z,0
2017-08-13T01:26:13.503Z,0
2017-08-13T01:27:13.781Z,0
2017-08-13T01:28:13.768Z,0
2017-08-13T01:29:13.806Z,0
2017-08-13T01:30:13.114Z,0
2017-08-13T01:31:13.706Z,0
2017-08-13T01:32:13.686Z,0
2017-08-13T01:33:13.676Z,0
2017-08-13T01:34:13.639Z,0
2017-08-13T01:35:13.614Z,0
2017-08-13T01:36:13.591Z,0
2017-08-13T01:37:13.572Z,0
2017-08-13T01:38:13.548Z,0
2017-08-13T01:39:13.226Z,0
2017-08-13T01:40:13.501Z,0
2017-08-13T01:41:13.522Z,0
2017-08-13T01:42:13.459Z,0
2017-08-13T01:43:13.436Z,0
2017-08-13T01:44:13.408Z,0
2017-08-13T01:45:13.390Z,0
2017-08-13T01:46:13.375Z,0
2017-08-13T01:47:13.354Z,0
2017-08-13T01:48:13.031Z,0
2017-08-13T01:49:13.319Z,0
2017-08-13T01:50:13.588Z,0
2017-08-13T01:51:13.271Z,0
2017-08-13T01:52:12.941Z,0
2017-08-13T01:53:12.937Z,0
2017-08-13T01:54:13.195Z,0
2017-08-13T01:55:13.184Z,0
2017-08-13T01:56:13.155Z,0
2017-08-13T01:57:13.138Z,0
2017-08-13T01:58:13.114Z,0
2017-08-13T01:59:13.093Z,0
2017-08-13T02:00:13.073Z,0
2017-08-13T02:01:13.051Z,0
2017-08-13T02:02:13.071Z,0
2017-08-13T02:03:13.008Z,0
2017-08-13T02:04:13.031Z,0
2017-08-13T02:05:13.010Z,0
2017-08-13T02:06:12.630Z,0
2017-08-13T02:07:12.665Z,0
2017-08-13T02:08:12.898Z,0
2017-08-13T02:09:12.869Z,0
2017-08-13T02:10:12.847Z,0
2017-08-13T02:11:12.828Z,0
2017-08-13T02:12:12.801Z,0
2017-08-13T02:13:12.783Z,0
2017-08-13T02:14:12.468Z,0
2017-08-13T02:15:12.743Z,0
2017-08-13T02:16:12.749Z,0
2017-08-13T02:17:12.753Z,0
2017-08-13T02:18:12.930Z,0
2017-08-13T02:19:12.654Z,0
2017-08-13T02:20:12.632Z,0
2017-08-13T02:21:12.326Z,0
2017-08-13T02:22:12.290Z,0
2017-08-13T02:23:12.564Z,0
2017-08-13T02:24:12.256Z,0
2017-08-13T02:25:12.527Z,0
2017-08-13T02:26:12.505Z,0
2017-08-13T02:27:12.540Z,0
2017-08-13T02:28:12.461Z,0
2017-08-13T02:29:12.450Z,0
2017-08-13T02:30:12.119Z,0
2017-08-13T02:31:12.396Z,0
2017-08-13T02:32:12.076Z,0
2017-08-13T02:33:12.355Z,0
2017-08-13T02:34:12.084Z,0
2017-08-13T02:35:12.323Z,0
2017-08-13T02:36:12.299Z,0
2017-08-13T02:37:12.271Z,0
2017-08-13T02:38:12.246Z,0
2017-08-13T02:39:11.928Z,0
2017-08-13T02:40:12.205Z,0
2017-08-13T02:41:12.287Z,0
2017-08-13T02:42:12.163Z,0
2017-08-13T02:43:12.143Z,0
2017-08-13T02:44:12.110Z,0
2017-08-13T02:45:12.097Z,0
2017-08-13T02:46:12.179Z,0
2017-08-13T02:47:12.048Z,0
2017-08-13T02:48:12.031Z,0
2017-08-13T02:49:12.014Z,0
2017-08-13T02:50:11.991Z,0
2017-08-13T02:51:11.966Z,0
2017-08-13T02:52:11.951Z,0
2017-08-13T02:53:11.925Z,0
2017-08-13T02:54:11.901Z,0
2017-08-13T02:55:11.885Z,0
2017-08-13T02:56:11.857Z,0
2017-08-13T02:57:11.837Z,0
2017-08-13T02:58:11.891Z,0
2017-08-13T02:59:11.799Z,0
2017-08-13T03:00:11.771Z,0
2017-08-13T03:01:11.451Z,0
2017-08-13T03:02:11.440Z,0
2017-08-13T03:03:11.705Z,0
2017-08-13T03:04:11.685Z,0
2017-08-13T03:05:11.686Z,0
2017-08-13T03:06:11.343Z,0
2017-08-13T03:07:11.626Z,0
2017-08-13T03:08:11.596Z,0
2017-08-13T03:09:11.581Z,0
2017-08-13T03:10:11.557Z,0
2017-08-13T03:11:11.531Z,0
2017-08-13T03:12:11.220Z,0
2017-08-13T03:13:11.732Z,0
2017-08-13T03:14:11.471Z,0
2017-08-13T03:15:11.448Z,0
2017-08-13T03:16:11.139Z,0
2017-08-13T03:17:11.395Z,0
2017-08-13T03:18:11.377Z,0
2017-08-13T03:19:11.363Z,0
2017-08-13T03:20:11.386Z,0
2017-08-13T03:21:11.317Z,0
2017-08-13T03:22:11.294Z,0
2017-08-13T03:23:11.327Z,0
2017-08-13T03:24:11.257Z,0
2017-08-13T03:25:11.233Z,0
2017-08-13T03:26:11.217Z,0
2017-08-13T03:27:11.186Z,0
2017-08-13T03:28:11.172Z,0
2017-08-13T03:29:11.143Z,0
2017-08-13T03:30:11.185Z,4
2017-08-13T03:31:11.146Z,4
2017-08-13T03:32:11.084Z,0
2017-08-13T03:33:11.052Z,0
2017-08-13T03:34:11.039Z,4
2017-08-13T03:35:11.006Z,4
2017-08-13T03:36:10.990Z,4
2017-08-13T03:37:10.667Z,4
2017-08-13T03:38:10.949Z,4
2017-08-13T03:39:10.922Z,8
2017-08-13T03:40:10.605Z,8
2017-08-13T03:41:10.895Z,8
2017-08-13T03:42:10.855Z,8
2017-08-13T03:43:10.838Z,12
2017-08-13T03:44:10.813Z,16
2017-08-13T03:45:10.504Z,16
2017-08-13T03:46:10.769Z,16
2017-08-13T03:47:10.750Z,20
2017-08-13T03:48:10.444Z,24
2017-08-13T03:49:10.701Z,28
2017-08-13T03:50:10.690Z,32
2017-08-13T03:51:10.661Z,32
2017-08-13T03:52:10.638Z,40
2017-08-13T03:53:10.624Z,48
2017-08-13T03:54:10.309Z,52
2017-08-13T03:55:10.570Z,60
2017-08-13T03:56:10.552Z,68
2017-08-13T03:57:10.534Z,76
2017-08-13T03:58:10.498Z,88
2017-08-13T03:59:10.489Z,96
2017-08-13T04:00:10.462Z,104
2017-08-13T04:01:10.441Z,120
2017-08-13T04:02:10.417Z,136
2017-08-13T04:03:10.395Z,148
2017-08-13T04:04:10.374Z,164
2017-08-13T04:05:10.355Z,180
2017-08-13T04:06:10.038Z,196
2017-08-13T04:07:10.304Z,220
2017-08-13T04:08:10.284Z,240
2017-08-13T04:09:10.275Z,260
2017-08-13T04:10:10.246Z,280
2017-08-13T04:11:10.221Z,308
2017-08-13T04:12:10.195Z,332
2017-08-13T04:13:10.185Z,360
2017-08-13T04:14:10.151Z,388
2017-08-13T04:15:10.133Z,416
2017-08-13T04:16:10.108Z,448
2017-08-13T04:17:10.089Z,480
2017-08-13T04:18:10.114Z,516
2017-08-13T04:19:10.050Z,552
2017-08-13T04:20:10.033Z,592
2017-08-13T04:21:09.996Z,628
2017-08-13T04:22:09.976Z,672
2017-08-13T04:23:09.964Z,720
2017-08-13T04:24:09.940Z,788
2017-08-13T04:25:09.916Z,860
2017-08-13T04:26:09.896Z,916
2017-08-13T04:27:09.870Z,956
2017-08-13T04:28:09.848Z,992
2017-08-13T04:29:09.824Z,1052
2017-08-13T04:30:09.831Z,1192
2017-08-13T04:31:09.845Z,1372
2017-08-13T04:32:09.757Z,1492
2017-08-13T04:33:09.731Z,1560
2017-08-13T04:34:09.720Z,1656
2017-08-13T04:35:09.690Z,1780
2017-08-13T04:36:09.668Z,1896
2017-08-13T04:37:09.653Z,2016
2017-08-13T04:38:09.877Z,2192
2017-08-13T04:39:09.602Z,2396
2017-08-13T04:40:09.583Z,2600
2017-08-13T04:41:09.559Z,2732
2017-08-13T04:42:09.540Z,2852
2017-08-13T04:43:09.211Z,2968
2017-08-13T04:44:09.506Z,3116
2017-08-13T04:45:09.477Z,3220
2017-08-13T04:46:09.501Z,3320
2017-08-13T04:47:09.431Z,3452
2017-08-13T04:48:09.407Z,3628
2017-08-13T04:49:09.442Z,3856
2017-08-13T04:50:09.372Z,4088
2017-08-13T04:51:09.341Z,4248
2017-08-13T04:52:09.584Z,4412
2017-08-13T04:53:08.999Z,4588
2017-08-13T04:54:09.282Z,4788
2017-08-13T04:55:09.258Z,5016
2017-08-13T04:56:09.237Z,5204
2017-08-13T04:57:09.212Z,5344
2017-08-13T04:58:09.199Z,5512
2017-08-13T04:59:09.175Z,5712
2017-08-13T05:00:09.154Z,5876
2017-08-13T05:01:09.133Z,6036
2017-08-13T05:02:09.118Z,6172
2017-08-13T05:03:09.094Z,6336
2017-08-13T05:04:09.077Z,6460
2017-08-13T05:05:09.046Z,6644
2017-08-13T05:06:09.036Z,6824
2017-08-13T05:07:09.016Z,6992
2017-08-13T05:08:08.995Z,7160
2017-08-13T05:09:09.225Z,7328
2017-08-13T05:10:08.952Z,7488
2017-08-13T05:11:08.921Z,7636
2017-08-13T05:12:08.610Z,7824
2017-08-13T05:13:08.594Z,7920
2017-08-13T05:14:08.871Z,8084
2017-08-13T05:15:08.896Z,8320
2017-08-13T05:16:08.821Z,8472
2017-08-13T05:17:08.806Z,8628
2017-08-13T05:18:08.783Z,8828
2017-08-13T05:19:08.767Z,8928
2017-08-13T05:20:08.744Z,9044
2017-08-13T05:21:08.725Z,9172
2017-08-13T05:22:08.706Z,9300
2017-08-13T05:23:08.696Z,9468
2017-08-13T05:24:08.671Z,9572
2017-08-13T05:25:08.658Z,9680
2017-08-13T05:26:08.625Z,9844
2017-08-13T05:27:08.599Z,9988
2017-08-13T05:28:08.302Z,10200
2017-08-13T05:29:08.573Z,10352
2017-08-13T05:30:08.596Z,10556
2017-08-13T05:31:08.220Z,10672
2017-08-13T05:32:08.222Z,10912
2017-08-13T05:33:08.492Z,11000
2017-08-13T05:34:08.479Z,11168
2017-08-13T05:35:08.452Z,11296
2017-08-13T05:36:08.440Z,11420
2017-08-13T05:37:08.413Z,11512
2017-08-13T05:38:08.402Z,11664
2017-08-13T05:39:08.379Z,11844
2017-08-13T05:40:08.354Z,11884
2017-08-13T05:41:07.795Z,12024
2017-08-13T05:42:08.329Z,12128
2017-08-13T05:43:08.311Z,12228
2017-08-13T05:44:08.281Z,12344
2017-08-13T05:45:08.268Z,12532
2017-08-13T05:46:07.994Z,12712
2017-08-13T05:47:07.941Z,12844
2017-08-13T05:48:07.910Z,12952
2017-08-13T05:49:08.201Z,13080
2017-08-13T05:50:08.184Z,13164
2017-08-13T05:51:08.177Z,13328
2017-08-13T05:52:08.155Z,13480
2017-08-13T05:53:08.128Z,13600
2017-08-13T05:54:08.114Z,13680
2017-08-13T05:55:08.086Z,13804
2017-08-13T05:56:08.066Z,13944
2017-08-13T05:57:07.759Z,13984
2017-08-13T05:58:08.047Z,14272
2017-08-13T05:59:08.039Z,14464
2017-08-13T06:00:08.005Z,14560
2017-08-13T06:01:07.988Z,14592
2017-08-13T06:02:07.975Z,14816
2017-08-13T06:03:07.954Z,15008
2017-08-13T06:04:07.944Z,15104
2017-08-13T06:05:07.919Z,15328
2017-08-13T06:06:07.917Z,15616
2017-08-13T06:07:07.898Z,15744
2017-08-13T06:08:07.875Z,15840
2017-08-13T06:09:07.556Z,16032
2017-08-13T06:10:07.845Z,16096
2017-08-13T06:11:07.826Z,16352
2017-08-13T06:12:07.809Z,16576
2017-08-13T06:13:07.489Z,16736
2017-08-13T06:14:07.771Z,16960
2017-08-13T06:15:07.761Z,17184
2017-08-13T06:16:07.445Z,17472
2017-08-13T06:17:07.735Z,17632
2017-08-13T06:18:07.709Z,17600
2017-08-13T06:19:07.700Z,17728
2017-08-13T06:20:07.685Z,18144
2017-08-13T06:21:07.682Z,18112
2017-08-13T06:22:07.654Z,18048
2017-08-13T06:23:07.630Z,18272
2017-08-13T06:24:07.621Z,18752
2017-08-13T06:25:07.633Z,18944
2017-08-13T06:26:07.594Z,18880
2017-08-13T06:27:07.587Z,19424
2017-08-13T06:28:07.567Z,19424
2017-08-13T06:29:07.570Z,19264
2017-08-13T06:30:07.534Z,19936
2017-08-13T06:31:07.527Z,20448
2017-08-13T06:32:07.502Z,20160
2017-08-13T06:33:07.494Z,19904
2017-08-13T06:34:07.475Z,20000
2017-08-13T06:35:07.466Z,20384
2017-08-13T06:36:07.706Z,20480
2017-08-13T06:37:07.436Z,20736
2017-08-13T06:38:07.438Z,21184
2017-08-13T06:39:07.116Z,20832
2017-08-13T06:40:07.389Z,20736
2017-08-13T06:41:07.380Z,21760
2017-08-13T06:42:07.368Z,22240
2017-08-13T06:43:07.350Z,22560
2017-08-13T06:44:07.352Z,23392
2017-08-13T06:45:07.021Z,23360
2017-08-13T06:46:07.309Z,22880
2017-08-13T06:47:07.296Z,22592
2017-08-13T06:48:07.341Z,22464
2017-08-13T06:49:07.263Z,22560
2017-08-13T06:50:07.255Z,22240
2017-08-13T06:51:07.237Z,22112
2017-08-13T06:52:07.236Z,23648
2017-08-13T06:53:06.923Z,25472
2017-08-13T06:54:06.904Z,25600
2017-08-13T06:55:07.195Z,24672
2017-08-13T06:56:07.171Z,23840
2017-08-13T06:57:07.412Z,23328
2017-08-13T06:58:07.161Z,23680
2017-08-13T06:59:07.136Z,25056
2017-08-13T07:00:07.129Z,25504
2017-08-13T07:01:07.121Z,24992
2017-08-13T07:02:07.102Z,26304
2017-08-13T07:03:07.089Z,27296
2017-08-13T07:04:06.818Z,27488
2017-08-13T07:05:07.074Z,28992
2017-08-13T07:06:07.054Z,30112
2017-08-13T07:07:07.041Z,30400
2017-08-13T07:08:07.034Z,30656
2017-08-13T07:09:07.012Z,31040
2017-08-13T07:10:07.020Z,30592
2017-08-13T07:11:06.979Z,30080
2017-08-13T07:12:07.024Z,30400
2017-08-13T07:13:06.960Z,32160
2017-08-13T07:14:06.650Z,34272
2017-08-13T07:15:06.988Z,34720
2017-08-13T07:16:06.629Z,33856
2017-08-13T07:17:06.931Z,33536
2017-08-13T07:18:07.159Z,33696
2017-08-13T07:19:06.904Z,33216
2017-08-13T07:20:06.891Z,30944
2017-08-13T07:21:06.879Z,29728
2017-08-13T07:22:06.866Z,28160
2017-08-13T07:23:06.552Z,31488
2017-08-13T07:24:06.556Z,36480
2017-08-13T07:25:07.070Z,32864
2017-08-13T07:26:06.823Z,28256
2017-08-13T07:27:06.801Z,34400
2017-08-13T07:28:06.806Z,37024
2017-08-13T07:29:06.783Z,38560
2017-08-13T07:30:06.776Z,33344
2017-08-13T07:31:06.211Z,32960
2017-08-13T07:32:06.746Z,39936
2017-08-13T07:33:06.802Z,37984
2017-08-13T07:34:06.739Z,36704
2017-08-13T07:35:06.720Z,44288
2017-08-13T07:36:06.713Z,44032
2017-08-13T07:37:06.696Z,42208
2017-08-13T07:38:06.391Z,31040
2017-08-13T07:39:06.670Z,39552
2017-08-13T07:40:06.719Z,23392
2017-08-13T07:41:06.652Z,43040
2017-08-13T07:42:06.348Z,29952
2017-08-13T07:43:06.642Z,35680
2017-08-13T07:44:06.621Z,29056
2017-08-13T07:45:06.608Z,35968
2017-08-13T07:46:06.602Z,32416
2017-08-13T07:47:06.588Z,33536
2017-08-13T07:48:06.584Z,45760
2017-08-13T07:49:06.271Z,45376
2017-08-13T07:50:06.551Z,42496
2017-08-13T07:51:06.571Z,40000
2017-08-13T07:52:06.530Z,40960
2017-08-13T07:53:06.218Z,45792
2017-08-13T07:54:06.518Z,51264
2017-08-13T07:55:06.498Z,53760
2017-08-13T07:56:06.191Z,54240
2017-08-13T07:57:06.474Z,52576
2017-08-13T07:58:06.483Z,52992
2017-08-13T07:59:06.471Z,52928
2017-08-13T08:00:06.456Z,55392
2017-08-13T08:01:06.443Z,54368
2017-08-13T08:02:06.440Z,54176
2017-08-13T08:03:06.168Z,53600
2017-08-13T08:04:06.407Z,54176
2017-08-13T08:05:06.098Z,56992
2017-08-13T08:06:06.392Z,60576
2017-08-13T08:07:06.447Z,62816
2017-08-13T08:08:06.376Z,62304
2017-08-13T08:09:06.063Z,59584
2017-08-13T08:10:06.362Z,56960
2017-08-13T08:11:06.370Z,56736
2017-08-13T08:12:06.375Z,60896
2017-08-13T08:13:06.341Z,65888
2017-08-13T08:14:06.330Z,67808
2017-08-13T08:15:06.010Z,64224
2017-08-13T08:16:06.309Z,61888
2017-08-13T08:17:06.299Z,63008
2017-08-13T08:18:06.306Z,64416
2017-08-13T08:19:06.335Z,63360
2017-08-13T08:20:06.280Z,59488
2017-08-13T08:21:06.268Z,57760
2017-08-13T08:22:06.269Z,57504
2017-08-13T08:23:06.258Z,59104
2017-08-13T08:24:06.254Z,62816
2017-08-13T08:25:06.242Z,64480
2017-08-13T08:26:06.230Z,53824
2017-08-13T08:27:06.227Z,60320
2017-08-13T08:28:06.222Z,60544
2017-08-13T08:29:05.910Z,59744
2017-08-13T08:30:06.210Z,63840
2017-08-13T08:31:06.300Z,64640
2017-08-13T08:32:05.888Z,60448
2017-08-13T08:33:05.882Z,56448
2017-08-13T08:34:06.180Z,12988
2017-08-13T08:35:06.174Z,11776
2017-08-13T08:36:06.162Z,41856
2017-08-13T08:37:06.155Z,56672
2017-08-13T08:38:06.143Z,50240
2017-08-13T08:39:06.132Z,59680
2017-08-13T08:40:06.151Z,14984
2017-08-13T08:41:06.174Z,53376
2017-08-13T08:42:06.167Z,51360
2017-08-13T08:43:06.156Z,50784
2017-08-13T08:44:06.168Z,52736
2017-08-13T08:45:06.101Z,57696
2017-08-13T08:46:06.103Z,61280
2017-08-13T08:47:05.769Z,61216
2017-08-13T08:48:06.114Z,59840
2017-08-13T08:49:05.753Z,57696
2017-08-13T08:50:05.752Z,56992
2017-08-13T08:51:06.036Z,66016
2017-08-13T08:52:06.081Z,73280
2017-08-13T08:53:05.722Z,75616
2017-08-13T08:54:06.024Z,76064
2017-08-13T08:55:06.009Z,72096
2017-08-13T08:56:05.704Z,63232
2017-08-13T08:57:05.994Z,57312
2017-08-13T08:58:06.000Z,55136
2017-08-13T08:59:05.993Z,56416
2017-08-13T09:00:06.024Z,60384
2017-08-13T09:01:05.963Z,66496
2017-08-13T09:02:05.664Z,67328
2017-08-13T09:03:05.665Z,66016
2017-08-13T09:04:05.954Z,60736
2017-08-13T09:05:05.947Z,56384
2017-08-13T09:06:05.940Z,53152
2017-08-13T09:07:05.621Z,50848
2017-08-13T09:08:05.933Z,48352
2017-08-13T09:09:05.942Z,45760
2017-08-13T09:10:05.604Z,45952
2017-08-13T09:11:05.304Z,52160
2017-08-13T09:12:05.905Z,58016
2017-08-13T09:13:05.905Z,64512
2017-08-13T09:14:05.886Z,60384
2017-08-13T09:15:05.883Z,61248
2017-08-13T09:16:05.886Z,55360
2017-08-13T09:17:05.883Z,49504
2017-08-13T09:18:05.941Z,44416
2017-08-13T09:19:05.568Z,43104
2017-08-13T09:20:05.859Z,42944
2017-08-13T09:21:05.548Z,48224
2017-08-13T09:22:05.841Z,55296
2017-08-13T09:23:05.591Z,63776
2017-08-13T09:24:05.244Z,70752
2017-08-13T09:25:05.918Z,70624
2017-08-13T09:26:05.809Z,65056
2017-08-13T09:27:05.812Z,57440
2017-08-13T09:28:05.800Z,54688
2017-08-13T09:29:05.799Z,54016
2017-08-13T09:30:05.793Z,55008
2017-08-13T09:31:05.477Z,57056
2017-08-13T09:32:05.773Z,59456
2017-08-13T09:33:05.793Z,60384
2017-08-13T09:34:05.772Z,58400
2017-08-13T09:35:05.503Z,59840
2017-08-13T09:36:05.747Z,58400
2017-08-13T09:37:05.742Z,57376
2017-08-13T09:38:05.737Z,55968
2017-08-13T09:39:05.746Z,55264
2017-08-13T09:40:05.724Z,56064
2017-08-13T09:41:05.719Z,54816
2017-08-13T09:42:05.722Z,53376
2017-08-13T09:43:05.711Z,55264
2017-08-13T09:44:05.403Z,57024
2017-08-13T09:45:05.709Z,61184
2017-08-13T09:46:05.691Z,67424
2017-08-13T09:47:05.378Z,75232
2017-08-13T09:48:05.679Z,80768
2017-08-13T09:49:05.671Z,87136
2017-08-13T09:50:05.719Z,79200
2017-08-13T09:51:05.713Z,72928
2017-08-13T09:52:05.652Z,65920
2017-08-13T09:53:05.652Z,57248
2017-08-13T09:54:05.336Z,53920
2017-08-13T09:55:05.636Z,55200
2017-08-13T09:56:05.654Z,63744
2017-08-13T09:57:05.628Z,66368
2017-08-13T09:58:05.650Z,70912
2017-08-13T09:59:05.307Z,68224
2017-08-13T10:00:05.591Z,62880
2017-08-13T10:01:05.297Z,64256
2017-08-13T10:02:05.644Z,68288
2017-08-13T10:03:05.606Z,72960
2017-08-13T10:04:05.595Z,80672
2017-08-13T10:05:05.295Z,85536
2017-08-13T10:06:05.575Z,86176
2017-08-13T10:07:05.562Z,80128
2017-08-13T10:08:05.553Z,78272
2017-08-13T10:09:05.749Z,73600
2017-08-13T10:10:05.543Z,67488
2017-08-13T10:11:05.537Z,68800
2017-08-13T10:12:05.535Z,71488
2017-08-13T10:13:05.544Z,73504
2017-08-13T10:14:05.517Z,78720
2017-08-13T10:15:05.529Z,85056
2017-08-13T10:16:05.583Z,85088
2017-08-13T10:17:05.501Z,83072
2017-08-13T10:18:05.498Z,80608
2017-08-13T10:19:05.489Z,80064
2017-08-13T10:20:05.480Z,17152
2017-08-13T10:21:05.470Z,68960
2017-08-13T10:22:05.586Z,80928
2017-08-13T10:23:05.464Z,89632
2017-08-13T10:24:05.467Z,18240
2017-08-13T10:25:05.444Z,16432
2017-08-13T10:26:05.456Z,17088
2017-08-13T10:27:05.442Z,84096
2017-08-13T10:28:05.429Z,53184
2017-08-13T10:29:05.449Z,77248
2017-08-13T10:30:05.415Z,74176
2017-08-13T10:31:05.410Z,75040
2017-08-13T10:32:05.410Z,83136
2017-08-13T10:33:05.394Z,84672
2017-08-13T10:34:05.394Z,81248
2017-08-13T10:35:05.381Z,73888
2017-08-13T10:36:05.439Z,23232
2017-08-13T10:37:05.362Z,22784
2017-08-13T10:38:05.066Z,20384
2017-08-13T10:39:05.356Z,17824
2017-08-13T10:40:05.383Z,15700
2017-08-13T10:41:05.669Z,13260
2017-08-13T10:42:05.331Z,10588
2017-08-13T10:43:05.373Z,8268
2017-08-13T10:44:05.319Z,6576
2017-08-13T10:45:05.307Z,5468
2017-08-13T10:46:05.289Z,4728
2017-08-13T10:47:04.983Z,4012
2017-08-13T10:48:05.335Z,3780
2017-08-13T10:49:04.975Z,3900
2017-08-13T10:50:05.255Z,4292
2017-08-13T10:51:05.241Z,4924
2017-08-13T10:52:04.925Z,5692
2017-08-13T10:53:05.220Z,6168
2017-08-13T10:54:04.897Z,6268
2017-08-13T10:55:05.178Z,6028
2017-08-13T10:56:05.160Z,5896
2017-08-13T10:57:05.170Z,5672
2017-08-13T10:58:05.147Z,5492
2017-08-13T10:59:19.958Z,4832
2017-08-13T11:00:05.112Z,4352
2017-08-13T11:01:05.092Z,3868
2017-08-13T11:02:05.082Z,3764
2017-08-13T11:03:05.061Z,4068
2017-08-13T11:04:04.743Z,4772
2017-08-13T11:05:04.764Z,6864
2017-08-13T11:06:05.265Z,8920
2017-08-13T11:07:05.000Z,12588
2017-08-13T11:08:04.991Z,14192
2017-08-13T11:09:04.958Z,15024
2017-08-13T11:10:04.651Z,16312
2017-08-13T11:11:04.929Z,17120
2017-08-13T11:12:04.923Z,17504
2017-08-13T11:13:04.951Z,18080
2017-08-13T11:14:04.890Z,18144
2017-08-13T11:15:04.608Z,17728
2017-08-13T11:16:04.556Z,16992
2017-08-13T11:17:04.839Z,17056
2017-08-13T11:18:04.835Z,18496
2017-08-13T11:19:04.800Z,19648
2017-08-13T11:20:04.771Z,20256
2017-08-13T11:21:04.458Z,19008
2017-08-13T11:22:04.449Z,18464
2017-08-13T11:23:04.723Z,19072
2017-08-13T11:24:04.409Z,20448
2017-08-13T11:25:04.692Z,20384
2017-08-13T11:26:04.677Z,20064
2017-08-13T11:27:04.684Z,19488
2017-08-13T11:28:04.649Z,19776
2017-08-13T11:29:04.338Z,19680
2017-08-13T11:30:04.607Z,20768
2017-08-13T11:31:04.651Z,21440
2017-08-13T11:32:04.329Z,20672
2017-08-13T11:33:04.567Z,19072
2017-08-13T11:34:04.546Z,18336
2017-08-13T11:35:04.530Z,17728
2017-08-13T11:36:04.768Z,17240
2017-08-13T11:37:04.510Z,17300
2017-08-13T11:38:04.491Z,18080
2017-08-13T11:39:04.468Z,18592
2017-08-13T11:40:04.449Z,18944
2017-08-13T11:41:04.438Z,19200
2017-08-13T11:42:04.420Z,19744
2017-08-13T11:43:04.455Z,21536
2017-08-13T11:44:04.385Z,20128
2017-08-13T11:45:04.366Z,20096
2017-08-13T11:46:04.361Z,20928
2017-08-13T11:47:03.738Z,22176
2017-08-13T11:48:04.327Z,23552
2017-08-13T11:49:04.016Z,23328
2017-08-13T11:50:04.310Z,23200
2017-08-13T11:51:04.282Z,21920
2017-08-13T11:52:03.962Z,20064
2017-08-13T11:53:04.246Z,17920
2017-08-13T11:54:04.230Z,16208
2017-08-13T11:55:03.912Z,15040
2017-08-13T11:56:04.202Z,14656
2017-08-13T11:57:04.186Z,14848
2017-08-13T11:58:04.165Z,14588
2017-08-13T11:59:04.152Z,14832
2017-08-13T12:00:04.190Z,14548
2017-08-13T12:01:04.117Z,13820
2017-08-13T12:02:04.100Z,13260
2017-08-13T12:03:04.088Z,13544
2017-08-13T12:04:04.126Z,14980
2017-08-13T12:05:03.761Z,16416
2017-08-13T12:06:04.049Z,16080
2017-08-13T12:07:04.024Z,14732
2017-08-13T12:08:04.014Z,13524
2017-08-13T12:09:03.989Z,11820
2017-08-13T12:10:03.976Z,11016
2017-08-13T12:11:04.211Z,10228
2017-08-13T12:12:03.998Z,9308
2017-08-13T12:13:03.936Z,9000
2017-08-13T12:14:03.919Z,8732
2017-08-13T12:15:03.897Z,8360
2017-08-13T12:16:03.582Z,9164
2017-08-13T12:17:03.881Z,8752
2017-08-13T12:18:03.857Z,8124
2017-08-13T12:19:03.887Z,8516
2017-08-13T12:20:03.816Z,8452
2017-08-13T12:21:03.809Z,8400
2017-08-13T12:22:03.787Z,8476
2017-08-13T12:23:03.770Z,8436
2017-08-13T12:24:03.798Z,8428
2017-08-13T12:25:03.786Z,8408
2017-08-13T12:26:03.741Z,7780
2017-08-13T12:27:03.145Z,7936
2017-08-13T12:28:03.690Z,8028
2017-08-13T12:29:03.683Z,7924
2017-08-13T12:30:03.662Z,8088
2017-08-13T12:31:03.645Z,8456
2017-08-13T12:32:03.628Z,9700
2017-08-13T12:33:03.653Z,10204
2017-08-13T12:34:03.596Z,9820
2017-08-13T12:35:03.592Z,9504
2017-08-13T12:36:03.561Z,9684
2017-08-13T12:37:03.585Z,10376
2017-08-13T12:38:03.518Z,11676
2017-08-13T12:39:03.509Z,12720
2017-08-13T12:40:03.482Z,13556
2017-08-13T12:41:02.876Z,14380
2017-08-13T12:42:03.454Z,15956
2017-08-13T12:43:03.441Z,16852
2017-08-13T12:44:03.410Z,18336
2017-08-13T12:45:03.409Z,18432
2017-08-13T12:46:03.379Z,18176
2017-08-13T12:47:03.377Z,17760
2017-08-13T12:48:03.349Z,15792
2017-08-13T12:49:03.348Z,13716
2017-08-13T12:50:03.626Z,12076
2017-08-13T12:51:02.998Z,10548
2017-08-13T12:52:03.029Z,8900
2017-08-13T12:53:03.279Z,7076
2017-08-13T12:54:02.955Z,5820
2017-08-13T12:55:03.249Z,4988
2017-08-13T12:56:03.226Z,4860
2017-08-13T12:57:03.201Z,5864
2017-08-13T12:58:02.882Z,7448
2017-08-13T12:59:03.187Z,8560
2017-08-13T13:00:03.150Z,9452
2017-08-13T13:01:02.846Z,10536
2017-08-13T13:02:02.831Z,11756
2017-08-13T13:03:03.120Z,12456
2017-08-13T13:04:03.082Z,12976
2017-08-13T13:05:03.060Z,12768
2017-08-13T13:06:03.052Z,11972
2017-08-13T13:07:02.723Z,11272
2017-08-13T13:08:03.020Z,11192
2017-08-13T13:09:02.996Z,12124
2017-08-13T13:10:02.988Z,12288
2017-08-13T13:11:02.959Z,12992
2017-08-13T13:12:02.959Z,13372
2017-08-13T13:13:02.927Z,13212
2017-08-13T13:14:02.625Z,13612
2017-08-13T13:15:02.888Z,14248
2017-08-13T13:16:02.876Z,13848
2017-08-13T13:17:02.554Z,13296
2017-08-13T13:18:02.837Z,13052
2017-08-13T13:19:02.827Z,12720
2017-08-13T13:20:02.500Z,12084
2017-08-13T13:21:02.801Z,11292
2017-08-13T13:22:02.757Z,10444
2017-08-13T13:23:02.753Z,9812
2017-08-13T13:24:02.436Z,9136
2017-08-13T13:25:02.717Z,8700
2017-08-13T13:26:02.440Z,8360
2017-08-13T13:27:02.675Z,7988
2017-08-13T13:28:03.005Z,7684